Burton, Texas
Current Conditions -  °F | °C
As of 7:35 PM on Monday 22 Dec 2014 (Local Time) from K11R Reporting Station
Clear Clear  
Wind Chill: 64°   Ceiling: Unl
Heat Index: 64°   Visibility: 10mi
Dew Point: 57°   Wind: 0mph
Humidity: 80%   Direction: NA
Pressure: 29.66"   Gusts: NA
Location:  30.18°N, 96.6°W
Report Text: K11R 230135Z AUTO 00000KT 10SM CLR 18/14 A2966 RMK AO2 T01750141
Loading
Personal Weather Stations






























Interactive Weather Map New forecast layout! Learn more

10-Day Weather Forecast

Advertisements
Track Severe Weather on mobile